createdAt,value
2023-02-01T00:02:20.980Z,78514.13
2023-02-01T00:04:47.827Z,78522.53
2023-02-01T00:07:14.913Z,78543.50
2023-02-01T00:09:41.667Z,78528.81
2023-02-01T00:12:08.447Z,78535.13
2023-02-01T00:14:39.418Z,78539.31
2023-02-01T00:17:07.767Z,78535.13
2023-02-01T00:19:35.080Z,78526.72
2023-02-01T00:22:02.017Z,78528.81
2023-02-01T00:24:29.191Z,78520.44
2023-02-01T00:26:56.890Z,78520.44
2023-02-01T00:29:25.005Z,78509.94
2023-02-01T00:31:53.507Z,78516.22
2023-02-01T00:34:21.305Z,78522.53
2023-02-01T00:36:49.988Z,78514.13
2023-02-01T00:39:17.867Z,78509.94
2023-02-01T00:41:45.981Z,78509.94
2023-02-01T00:44:13.773Z,78505.72
2023-02-01T00:46:40.796Z,78516.22
2023-02-01T00:49:08.449Z,78509.94
2023-02-01T00:51:35.399Z,78497.34
2023-02-01T00:54:02.553Z,78514.13
2023-02-01T00:56:30.283Z,78518.31
2023-02-01T00:58:57.637Z,78505.72
2023-02-01T01:01:27.126Z,78501.53
2023-02-01T01:03:58.745Z,78488.94
2023-02-01T01:06:31.836Z,78509.94
2023-02-01T01:09:00.895Z,78503.63
2023-02-01T01:11:30.711Z,78501.53
2023-02-01T01:13:59.109Z,78497.34
2023-02-01T01:16:28.778Z,78486.84
2023-02-01T01:18:56.425Z,78484.75
2023-02-01T01:21:23.373Z,78480.56
2023-02-01T01:23:50.473Z,78493.13
2023-02-01T01:26:23.964Z,78503.63
2023-02-01T01:28:51.580Z,78491.03
2023-02-01T01:31:20.147Z,78480.56
2023-02-01T01:33:50.879Z,78463.75
2023-02-01T01:36:17.894Z,78459.56
2023-02-01T01:38:45.014Z,78459.56
2023-02-01T01:41:16.059Z,78465.84
2023-02-01T01:44:01.821Z,78459.56
2023-02-01T01:46:37.216Z,78461.66
2023-02-01T01:49:15.122Z,78463.75
2023-02-01T01:51:52.199Z,78457.47
2023-02-01T01:54:48.264Z,78457.47
2023-02-01T01:57:24.242Z,78459.56
2023-02-01T01:59:58.409Z,78461.66
2023-02-01T02:02:26.162Z,78463.75
2023-02-01T02:04:53.216Z,78459.56
2023-02-01T02:07:26.508Z,78446.97
2023-02-01T02:10:00.545Z,78442.78
2023-02-01T02:12:29.628Z,78434.38
2023-02-01T02:14:56.807Z,78430.19
2023-02-01T02:17:37.423Z,78428.06
2023-02-01T02:20:33.826Z,78442.78
2023-02-01T02:23:21.365Z,78417.59
2023-02-01T02:26:07.489Z,78413.38
2023-02-01T02:28:44.789Z,78417.59
2023-02-01T02:31:20.815Z,78421.78
2023-02-01T02:33:59.134Z,78421.78
2023-02-01T02:37:08.332Z,78421.78
2023-02-01T02:39:35.191Z,78409.19
2023-02-01T02:42:36.765Z,78413.38
2023-02-01T02:45:29.417Z,78413.38
2023-02-01T02:48:22.137Z,78417.59
2023-02-01T02:51:18.001Z,78396.59
2023-02-01T02:54:14.366Z,78379.81
2023-02-01T02:57:01.419Z,78365.13
2023-02-01T02:59:49.291Z,78358.81
2023-02-01T03:02:36.914Z,78342.03
2023-02-01T03:05:04.101Z,78342.03
2023-02-01T03:08:00.692Z,78337.81
2023-02-01T03:10:42.855Z,78346.22
2023-02-01T03:13:28.953Z,78337.81
2023-02-01T03:16:17.369Z,78350.41
2023-02-01T03:18:51.371Z,78342.03
2023-02-01T03:21:26.414Z,78342.03
2023-02-01T03:23:57.617Z,78342.03
2023-02-01T03:26:28.708Z,78342.03
2023-02-01T03:29:03.498Z,78352.53
2023-02-01T03:31:32.582Z,78346.22
2023-02-01T03:34:00.101Z,78363.00
2023-02-01T03:36:33.104Z,78346.22
2023-02-01T03:39:04.292Z,78363.00
2023-02-01T03:41:54.116Z,78346.22
2023-02-01T03:44:29.059Z,78342.03
2023-02-01T03:47:14.798Z,78342.03
2023-02-01T03:49:45.460Z,78346.22
2023-02-01T03:52:24.516Z,78342.03
2023-02-01T03:54:53.556Z,78339.94
2023-02-01T03:57:26.752Z,78239.19
2023-02-01T03:59:54.344Z,78226.59
2023-02-01T04:02:23.002Z,78216.09
2023-02-01T04:04:49.911Z,78211.91
2023-02-01T04:07:20.239Z,78220.31
2023-02-01T04:09:47.205Z,78222.41
2023-02-01T04:12:14.073Z,78228.69
2023-02-01T04:14:41.037Z,78228.69
2023-02-01T04:17:07.976Z,78224.50
2023-02-01T04:19:34.844Z,78224.50
2023-02-01T04:22:01.669Z,78232.91
2023-02-01T04:24:30.236Z,78237.09
2023-02-01T04:26:57.300Z,78237.09
2023-02-01T04:29:24.483Z,78245.47
2023-02-01T04:31:51.455Z,78241.28
2023-02-01T04:34:18.613Z,78224.50
2023-02-01T04:36:47.293Z,78216.09
2023-02-01T04:39:14.709Z,78209.81
2023-02-01T04:41:42.208Z,78199.31
2023-02-01T04:44:16.298Z,78199.31
2023-02-01T04:46:43.511Z,78203.50
2023-02-01T04:49:11.232Z,78216.09
2023-02-01T04:51:38.477Z,78218.19
2023-02-01T04:54:05.567Z,78211.91
2023-02-01T04:56:33.124Z,78207.72
2023-02-01T04:59:00.117Z,78224.50
2023-02-01T05:01:27.295Z,78201.41
2023-02-01T05:03:54.104Z,78199.31
2023-02-01T05:06:22.018Z,78197.22
2023-02-01T05:08:49.318Z,78209.81
2023-02-01T05:11:34.943Z,78224.50
2023-02-01T05:14:02.635Z,78211.91
2023-02-01T05:16:29.957Z,78220.31
2023-02-01T05:18:56.939Z,78220.31
2023-02-01T05:21:23.967Z,78230.78
2023-02-01T05:24:09.528Z,78220.31
2023-02-01T05:26:37.631Z,78228.69
2023-02-01T05:29:05.982Z,78228.69
2023-02-01T05:31:32.951Z,78232.91
2023-02-01T05:34:00.411Z,78241.28
2023-02-01T05:36:27.613Z,78226.59
2023-02-01T05:38:54.586Z,78230.78
2023-02-01T05:41:21.519Z,78235.00
2023-02-01T05:43:48.399Z,78241.28
2023-02-01T05:46:16.649Z,78241.28
2023-02-01T05:48:44.220Z,78247.59
2023-02-01T05:51:12.348Z,78247.59
2023-02-01T05:53:39.439Z,78237.09
2023-02-01T05:56:07.106Z,78235.00
2023-02-01T05:58:34.839Z,78253.88
2023-02-01T06:01:04.469Z,78270.66
2023-02-01T06:03:31.441Z,78266.47
2023-02-01T06:05:58.594Z,78283.25
2023-02-01T06:08:27.056Z,78291.66
2023-02-01T06:11:05.974Z,78287.47
2023-02-01T06:13:34.644Z,78302.16
2023-02-01T06:16:04.591Z,78295.84
2023-02-01T06:18:31.906Z,78287.47
2023-02-01T06:21:03.145Z,78289.56
2023-02-01T06:23:31.515Z,78285.34
2023-02-01T06:26:05.888Z,78283.25
2023-02-01T06:28:34.421Z,78283.25
2023-02-01T06:31:08.066Z,78289.56
2023-02-01T06:33:36.537Z,78287.47
2023-02-01T06:36:07.749Z,78274.88
2023-02-01T06:38:38.279Z,78264.38
2023-02-01T06:41:06.950Z,78279.06
2023-02-01T06:43:34.498Z,78281.16
2023-02-01T06:46:06.179Z,78279.06
2023-02-01T06:48:34.211Z,78279.06
2023-02-01T06:51:01.319Z,78287.47
2023-02-01T06:53:28.940Z,78283.25
2023-02-01T06:55:58.466Z,78279.06
2023-02-01T06:58:28.963Z,78272.75
2023-02-01T07:00:57.145Z,78270.66
2023-02-01T07:03:24.174Z,78287.47
2023-02-01T07:05:51.188Z,78274.88
2023-02-01T07:08:18.247Z,78283.25
2023-02-01T07:10:45.307Z,78276.97
2023-02-01T07:13:12.262Z,78279.06
2023-02-01T07:15:39.379Z,78281.16
2023-02-01T07:18:06.329Z,78289.56
2023-02-01T07:20:33.928Z,78291.66
2023-02-01T07:23:01.340Z,78287.47
2023-02-01T07:25:28.440Z,78295.84
2023-02-01T07:27:55.482Z,78283.25
2023-02-01T07:30:23.002Z,78279.06
2023-02-01T07:32:50.326Z,78266.47
2023-02-01T07:35:17.304Z,78283.25
2023-02-01T07:37:44.167Z,78285.34
2023-02-01T07:40:20.087Z,78287.47
2023-02-01T07:42:50.180Z,78279.06
2023-02-01T07:45:21.298Z,78274.88
2023-02-01T07:47:49.414Z,78274.88
2023-02-01T07:50:16.905Z,78276.97
2023-02-01T07:52:43.919Z,78304.25
2023-02-01T07:55:11.248Z,78295.84
2023-02-01T07:57:38.383Z,78318.94
2023-02-01T08:00:24.658Z,78249.69
2023-02-01T08:02:51.919Z,78228.69
2023-02-01T08:05:18.792Z,78245.47
2023-02-01T08:07:50.361Z,78232.91
2023-02-01T08:10:18.797Z,78232.91
2023-02-01T08:12:49.403Z,78241.28
2023-02-01T08:15:16.955Z,78237.09
2023-02-01T08:17:58.960Z,78224.50
2023-02-01T08:20:29.175Z,78220.31
2023-02-01T08:22:56.381Z,78209.81
2023-02-01T08:25:24.956Z,78216.09
2023-02-01T08:27:52.352Z,78201.41
2023-02-01T08:30:19.613Z,78195.13
2023-02-01T08:32:46.829Z,78199.31
2023-02-01T08:35:13.839Z,78195.13
2023-02-01T08:37:40.823Z,78195.13
2023-02-01T08:40:08.724Z,78190.91
2023-02-01T08:42:54.209Z,78182.53
2023-02-01T08:45:25.095Z,78182.53
2023-02-01T08:47:53.797Z,78205.59
2023-02-01T08:50:22.079Z,78186.72
2023-02-01T08:52:49.610Z,78178.31
2023-02-01T08:55:17.147Z,78172.03
2023-02-01T08:57:44.835Z,78159.44
2023-02-01T09:00:16.824Z,78157.34
2023-02-01T09:02:44.196Z,78157.34
2023-02-01T09:05:12.065Z,78157.34
2023-02-01T09:07:38.900Z,78157.34
2023-02-01T09:10:06.511Z,78144.75
2023-02-01T09:12:35.158Z,78138.44
2023-02-01T09:15:02.459Z,78151.03
2023-02-01T09:17:31.155Z,78159.44
2023-02-01T09:19:58.151Z,78169.94
2023-02-01T09:22:25.475Z,78153.13
2023-02-01T09:24:55.371Z,78142.66
2023-02-01T09:27:22.883Z,78144.75
2023-02-01T09:29:53.911Z,78130.06
2023-02-01T09:32:23.486Z,78136.34
2023-02-01T09:34:51.703Z,78132.16
2023-02-01T09:37:19.444Z,78140.56
2023-02-01T09:39:49.722Z,78140.56
2023-02-01T09:42:54.926Z,78136.34
2023-02-01T09:45:47.861Z,78138.44
2023-02-01T09:48:19.113Z,78132.16
2023-02-01T09:50:51.335Z,78132.16
2023-02-01T09:53:29.028Z,78121.66
2023-02-01T09:56:22.092Z,78115.38
2023-02-01T09:59:11.440Z,78127.97
2023-02-01T10:01:39.340Z,78132.16
2023-02-01T10:04:12.428Z,78127.97
2023-02-01T10:06:42.072Z,78111.16
2023-02-01T10:09:42.424Z,78140.56
2023-02-01T10:12:32.248Z,78151.03
2023-02-01T10:14:59.006Z,78161.53
2023-02-01T10:17:59.410Z,78161.53
2023-02-01T10:20:47.906Z,78123.75
2023-02-01T10:23:53.550Z,78117.47
2023-02-01T10:26:23.157Z,78138.44
2023-02-01T10:29:04.439Z,78140.56
2023-02-01T10:31:36.143Z,78144.75
2023-02-01T10:34:18.628Z,78157.34
2023-02-01T10:36:54.649Z,78148.94
2023-02-01T10:39:21.991Z,78138.44
2023-02-01T10:41:48.764Z,78144.75
2023-02-01T10:44:19.046Z,78142.66
2023-02-01T10:46:46.076Z,78140.56
2023-02-01T10:49:23.805Z,78144.75
2023-02-01T10:52:29.155Z,78138.44
2023-02-01T10:54:56.009Z,78127.97
2023-02-01T10:57:26.882Z,78132.16
2023-02-01T10:59:54.287Z,78127.97
2023-02-01T11:02:34.010Z,78130.06
2023-02-01T11:05:13.275Z,78115.38
2023-02-01T11:07:47.202Z,78123.75
2023-02-01T11:10:43.378Z,78130.06
2023-02-01T11:13:19.234Z,78109.06
2023-02-01T11:15:47.400Z,78115.38
2023-02-01T11:18:20.175Z,78109.06
2023-02-01T11:20:53.146Z,78102.78
2023-02-01T11:23:24.649Z,78098.56
2023-02-01T11:25:57.312Z,78098.56
2023-02-01T11:28:32.298Z,78098.56
2023-02-01T11:31:03.599Z,78092.28
2023-02-01T11:33:36.270Z,78083.88
2023-02-01T11:36:11.712Z,78085.97
2023-02-01T11:38:38.497Z,78090.19
2023-02-01T11:41:28.916Z,78098.56
2023-02-01T11:44:17.041Z,78088.09
2023-02-01T11:46:43.866Z,78092.28
2023-02-01T11:49:26.308Z,78077.59
2023-02-01T11:52:11.792Z,78077.59
2023-02-01T11:54:38.567Z,78065.00
2023-02-01T11:57:36.577Z,78048.22
2023-02-01T12:00:33.333Z,78033.53
2023-02-01T12:03:09.419Z,78027.22
2023-02-01T12:06:14.314Z,78039.81
2023-02-01T12:09:00.619Z,78044.00
2023-02-01T12:11:44.226Z,78035.63
2023-02-01T12:14:14.033Z,78033.53
2023-02-01T12:16:46.480Z,78031.41
2023-02-01T12:19:22.959Z,78023.03
2023-02-01T12:22:15.127Z,78023.03
2023-02-01T12:25:09.821Z,78023.03
2023-02-01T12:27:36.900Z,78023.03
2023-02-01T12:30:06.542Z,78031.41
2023-02-01T12:32:54.083Z,78018.81
2023-02-01T12:35:36.270Z,78010.44
2023-02-01T12:38:22.255Z,78020.94
2023-02-01T12:40:57.513Z,78027.22
2023-02-01T12:43:40.691Z,78023.03
2023-02-01T12:46:25.421Z,78012.53
2023-02-01T12:48:54.871Z,78016.72
2023-02-01T12:51:27.649Z,78014.63
2023-02-01T12:54:32.209Z,78018.81
2023-02-01T12:57:04.240Z,78031.41
2023-02-01T12:59:31.082Z,78031.41
2023-02-01T13:02:21.644Z,78010.44
2023-02-01T13:05:16.725Z,78029.31
2023-02-01T13:07:46.390Z,78023.03
2023-02-01T13:10:58.340Z,78002.03
2023-02-01T13:13:49.019Z,78008.34
2023-02-01T13:16:52.258Z,78014.63
2023-02-01T13:19:25.989Z,78031.41
2023-02-01T13:22:00.265Z,78031.41
2023-02-01T13:24:50.698Z,78056.59
2023-02-01T13:27:18.493Z,78048.22
2023-02-01T13:29:52.860Z,78058.69
2023-02-01T13:32:57.091Z,78052.41
2023-02-01T13:35:36.301Z,78065.00
2023-02-01T13:38:21.082Z,78052.41
2023-02-01T13:40:58.084Z,78065.00
2023-02-01T13:43:28.184Z,78073.41
2023-02-01T13:45:59.116Z,78054.50
2023-02-01T13:48:34.477Z,78069.19
2023-02-01T13:51:02.045Z,78056.59
2023-02-01T13:53:38.070Z,78060.81
2023-02-01T13:56:12.259Z,78065.00
2023-02-01T13:58:42.474Z,78069.19
2023-02-01T14:01:24.536Z,78071.28
2023-02-01T14:03:59.520Z,78077.59
2023-02-01T14:06:29.506Z,78054.50
2023-02-01T14:09:14.701Z,78046.09
2023-02-01T14:11:43.832Z,78050.31
2023-02-01T14:14:16.712Z,77819.47
2023-02-01T14:17:05.896Z,77903.41
2023-02-01T14:19:35.053Z,77918.09
2023-02-01T14:22:21.839Z,77909.69
2023-02-01T14:24:55.292Z,77905.50
2023-02-01T14:27:26.161Z,77892.91
2023-02-01T14:29:59.453Z,77880.31
2023-02-01T14:32:32.631Z,77846.75
2023-02-01T14:35:02.747Z,77804.78
2023-02-01T14:37:32.582Z,77760.72
2023-02-01T14:40:03.404Z,77762.81
2023-02-01T14:42:43.493Z,77773.28
2023-02-01T14:45:26.086Z,77783.78
2023-02-01T14:48:08.739Z,77783.78
2023-02-01T14:50:45.431Z,77787.97
2023-02-01T14:53:15.754Z,77848.84
2023-02-01T14:56:04.375Z,77846.75
2023-02-01T14:58:46.293Z,77853.03
2023-02-01T15:01:19.193Z,77859.34
2023-02-01T15:03:53.760Z,77855.13
2023-02-01T15:06:41.687Z,77846.75
2023-02-01T15:09:17.708Z,77853.03
2023-02-01T15:12:16.698Z,77867.72
2023-02-01T15:14:50.391Z,77871.94
2023-02-01T15:17:21.671Z,77871.94
2023-02-01T15:20:01.015Z,77846.75
2023-02-01T15:22:29.937Z,77838.34
2023-02-01T15:24:59.531Z,77842.53
2023-02-01T15:27:27.845Z,77855.13
2023-02-01T15:29:54.870Z,77871.94
2023-02-01T15:32:34.645Z,77871.94
2023-02-01T15:35:01.987Z,77867.72
2023-02-01T15:37:30.149Z,77871.94
2023-02-01T15:40:20.654Z,77871.94
2023-02-01T15:43:00.355Z,77859.34
2023-02-01T15:45:30.285Z,77855.13
2023-02-01T15:47:59.301Z,77834.16
2023-02-01T15:50:28.140Z,77838.34
2023-02-01T15:52:59.540Z,77842.53
2023-02-01T15:55:43.392Z,77846.75
2023-02-01T15:58:22.402Z,77846.75
2023-02-01T16:00:51.439Z,77857.25
2023-02-01T16:03:36.786Z,77863.53
2023-02-01T16:06:07.556Z,77871.94
2023-02-01T16:08:35.767Z,77871.94
2023-02-01T16:11:26.960Z,77869.81
2023-02-01T16:13:54.118Z,77878.22
2023-02-01T16:16:21.275Z,77878.22
2023-02-01T16:18:49.266Z,77888.72
2023-02-01T16:21:16.180Z,77882.41
2023-02-01T16:23:42.982Z,77884.50
2023-02-01T16:26:10.057Z,77897.09
2023-02-01T16:28:37.203Z,77897.09
2023-02-01T16:31:04.254Z,77901.31
2023-02-01T16:33:31.512Z,77909.69
2023-02-01T16:36:01.426Z,77918.09
2023-02-01T16:38:28.794Z,77922.28
2023-02-01T16:40:55.920Z,77918.09
2023-02-01T16:43:24.796Z,77913.91
2023-02-01T16:45:54.407Z,77930.69
2023-02-01T16:48:24.359Z,77936.97
2023-02-01T16:50:54.993Z,77932.78
2023-02-01T16:53:22.944Z,77934.88
2023-02-01T16:55:50.828Z,77939.09
2023-02-01T16:58:19.555Z,77932.78
2023-02-01T17:00:47.705Z,77928.59
2023-02-01T17:03:17.610Z,77930.69
2023-02-01T17:05:51.189Z,77926.50
2023-02-01T17:08:29.814Z,77918.09
2023-02-01T17:10:56.719Z,77918.09
2023-02-01T17:13:23.728Z,77924.38
2023-02-01T17:15:55.048Z,77928.59
2023-02-01T17:18:22.242Z,77968.47
2023-02-01T17:20:49.447Z,77985.25
2023-02-01T17:23:17.529Z,78035.63
2023-02-01T17:25:44.422Z,77943.28
2023-02-01T17:28:11.648Z,77981.06
2023-02-01T17:30:40.177Z,77972.66
2023-02-01T17:33:22.370Z,77813.16
2023-02-01T17:35:50.096Z,77783.78
2023-02-01T17:38:17.514Z,77767.00
2023-02-01T17:40:44.400Z,77756.50
2023-02-01T17:43:20.873Z,77750.22
2023-02-01T17:45:58.990Z,77741.81
2023-02-01T17:48:27.910Z,77737.63
2023-02-01T17:50:58.925Z,77746.00
2023-02-01T17:53:27.595Z,77725.03
2023-02-01T17:56:05.745Z,77720.84
2023-02-01T17:58:33.667Z,77716.63
2023-02-01T18:01:00.844Z,77710.34
2023-02-01T18:03:30.401Z,77706.16
2023-02-01T18:05:59.478Z,77695.66
2023-02-01T18:08:33.844Z,77689.34
2023-02-01T18:11:02.270Z,77685.16
2023-02-01T18:13:35.567Z,77691.47
2023-02-01T18:16:07.985Z,77695.66
2023-02-01T18:18:41.166Z,77678.88
2023-02-01T18:21:10.019Z,77685.16
2023-02-01T18:23:37.057Z,77689.34
2023-02-01T18:26:04.969Z,77687.25
2023-02-01T18:28:32.059Z,77672.56
2023-02-01T18:30:59.481Z,77666.28
2023-02-01T18:33:26.538Z,77659.97
2023-02-01T18:35:53.361Z,77655.78
2023-02-01T18:38:20.384Z,77653.69
2023-02-01T18:40:51.720Z,77641.09
2023-02-01T18:43:19.493Z,77641.09
2023-02-01T18:45:47.676Z,77632.69
2023-02-01T18:48:16.161Z,77636.91
2023-02-01T18:50:45.519Z,77628.50
2023-02-01T18:53:15.005Z,77624.31
2023-02-01T18:55:42.175Z,77620.09
2023-02-01T18:58:12.118Z,77624.31
2023-02-01T19:00:38.862Z,77624.31
2023-02-01T19:03:05.700Z,77620.09
2023-02-01T19:05:32.868Z,77624.31
2023-02-01T19:07:59.776Z,77620.09
2023-02-01T19:10:27.620Z,77613.81
2023-02-01T19:12:58.613Z,77620.09
2023-02-01T19:15:26.313Z,77624.31
2023-02-01T19:17:55.308Z,77620.09
2023-02-01T19:20:24.792Z,77615.91
2023-02-01T19:22:52.124Z,77615.91
2023-02-01T19:25:24.912Z,77607.53
2023-02-01T19:27:54.486Z,77607.53
2023-02-01T19:30:23.293Z,77609.63
2023-02-01T19:32:51.357Z,77603.31
2023-02-01T19:35:20.594Z,77611.72
2023-02-01T19:37:48.675Z,77607.53
2023-02-01T19:40:18.233Z,77618.00
2023-02-01T19:42:45.841Z,77624.31
2023-02-01T19:45:13.627Z,77624.31
2023-02-01T19:47:40.385Z,77628.50
2023-02-01T19:50:08.386Z,77628.50
2023-02-01T19:52:35.712Z,77645.28
2023-02-01T19:55:04.136Z,77641.09
2023-02-01T19:57:39.003Z,77636.91
2023-02-01T20:00:08.247Z,77632.69
2023-02-01T20:02:34.466Z,77628.50
2023-02-01T20:05:01.707Z,77641.09
2023-02-01T20:07:28.597Z,77643.19
2023-02-01T20:09:55.391Z,77649.50
2023-02-01T20:12:22.272Z,77636.91
2023-02-01T20:14:49.106Z,77641.09
2023-02-01T20:17:18.315Z,77653.69
2023-02-01T20:19:45.161Z,77653.69
2023-02-01T20:22:11.949Z,77653.69
2023-02-01T20:24:41.656Z,77649.50
2023-02-01T20:27:13.145Z,77649.50
2023-02-01T20:29:41.824Z,77649.50
2023-02-01T20:32:09.020Z,77649.50
2023-02-01T20:34:37.016Z,77655.78
2023-02-01T20:37:03.797Z,77664.19
2023-02-01T20:39:30.549Z,77691.47
2023-02-01T20:41:57.539Z,77674.66
2023-02-01T20:44:24.497Z,77676.75
2023-02-01T20:46:51.421Z,77678.88
2023-02-01T20:49:18.375Z,77674.66
2023-02-01T20:51:45.160Z,77670.47
2023-02-01T20:54:12.180Z,77674.66
2023-02-01T20:56:40.038Z,77659.97
2023-02-01T20:59:10.994Z,77657.88
2023-02-01T21:01:38.502Z,77662.06
2023-02-01T21:04:05.311Z,77668.38
2023-02-01T21:06:32.694Z,77674.66
2023-02-01T21:08:59.572Z,77674.66
2023-02-01T21:11:26.478Z,77674.66
2023-02-01T21:13:55.336Z,77678.88
2023-02-01T21:16:22.730Z,77676.75
2023-02-01T21:18:51.174Z,77674.66
2023-02-01T21:21:18.387Z,77676.75
2023-02-01T21:23:45.241Z,77670.47
2023-02-01T21:26:23.809Z,77668.38
2023-02-01T21:28:52.623Z,77666.28
2023-02-01T21:31:21.194Z,77659.97
2023-02-01T21:33:51.721Z,77655.78
2023-02-01T21:36:19.602Z,77651.59
2023-02-01T21:38:51.917Z,77659.97
2023-02-01T21:41:39.272Z,77670.47
2023-02-01T21:44:06.826Z,77668.38
2023-02-01T21:46:33.703Z,77670.47
2023-02-01T21:49:06.383Z,77670.47
2023-02-01T21:51:35.317Z,77678.88
2023-02-01T21:54:02.491Z,77676.75
2023-02-01T21:56:29.596Z,77672.56
2023-02-01T21:58:56.737Z,77683.06
2023-02-01T22:01:23.917Z,77678.88
2023-02-01T22:03:51.118Z,77680.97
2023-02-01T22:06:35.299Z,77685.16
2023-02-01T22:09:02.913Z,77687.25
2023-02-01T22:11:30.060Z,77733.44
2023-02-01T22:13:56.938Z,77729.22
2023-02-01T22:16:24.083Z,77727.13
2023-02-01T22:18:52.390Z,77683.06
2023-02-01T22:21:19.910Z,77683.06
2023-02-01T22:23:59.030Z,77683.06
2023-02-01T22:26:27.656Z,77699.84
2023-02-01T22:28:55.096Z,77704.03
2023-02-01T22:31:22.410Z,77706.16
2023-02-01T22:33:50.670Z,77712.44
2023-02-01T22:36:18.366Z,77710.34
2023-02-01T22:38:46.594Z,77725.03
2023-02-01T22:41:13.978Z,77725.03
2023-02-01T22:43:41.181Z,77729.22
2023-02-01T22:46:17.576Z,77729.22
2023-02-01T22:48:46.646Z,77741.81
2023-02-01T22:51:22.522Z,77733.44
2023-02-01T22:53:57.251Z,77733.44
2023-02-01T22:56:32.809Z,77737.63
2023-02-01T22:59:05.364Z,77737.63
2023-02-01T23:01:33.520Z,77731.31
2023-02-01T23:04:02.803Z,77735.53
2023-02-01T23:06:30.471Z,77720.84
2023-02-01T23:09:03.195Z,77727.13
2023-02-01T23:11:30.368Z,77725.03
2023-02-01T23:13:57.428Z,77725.03
2023-02-01T23:16:24.261Z,77733.44
2023-02-01T23:18:51.024Z,77735.53
2023-02-01T23:21:20.177Z,77729.22
2023-02-01T23:23:48.331Z,77729.22
2023-02-01T23:26:15.804Z,77731.31
2023-02-01T23:28:43.336Z,77725.03
2023-02-01T23:31:11.962Z,77725.03
2023-02-01T23:33:39.831Z,77725.03
2023-02-01T23:36:11.120Z,77725.03
2023-02-01T23:38:38.098Z,77720.84
2023-02-01T23:41:06.960Z,77716.63
2023-02-01T23:43:52.601Z,77722.94
2023-02-01T23:46:20.127Z,77720.84
2023-02-01T23:48:48.706Z,77722.94
2023-02-01T23:51:16.089Z,77729.22
2023-02-01T23:53:44.859Z,77720.84
2023-02-01T23:56:21.064Z,77729.22
2023-02-01T23:58:48.675Z,77737.63
